Аэропорт: Игнатьево. Благовещенск

ICAO: UHBB

METAR:
2024-07-24 14:00:00
UHBB 241400Z 00000MPS 9999 FEW033 21/19 Q1005 R36/090056 NOSIG RMK QFE736/0982
TAF:
2024-07-24 13:40:00
TAF UHBB 241340Z 2415/2515 03003MPS 9999 FEW033 TX30/2506Z 
  BECMG 2417/2419 0300 FG VV003 
  BECMG 2421/2423 9999 NSW SCT030CB